Time;durP1;ratioP1;P1;durP2;ratioP2;P2;SDS_P1;SDS_P2;PMS_P1;PMS_P2;Temp;Humidity;BMP_temperature;BMP_pressure;BME280_temperature;BME280_humidity;BME280_pressure;Samples;Min_cycle;Max_cycle;Signal;HPM_P1;HPM_P2
2022/10/18 00:00:20;;;;;;;18.60;16.63;;;18.80;99.90;;;;;;5037063;28;20817;-82
2022/10/18 00:02:48;;;;;;;17.03;15.23;;;18.80;99.90;;;;;;5037992;28;20997;-82
2022/10/18 00:05:15;;;;;;;18.03;16.23;;;18.80;99.90;;;;;;5037053;28;20479;-82
2022/10/18 00:07:44;;;;;;;16.27;14.70;;;18.80;99.90;;;;;;5037336;28;20521;-82
2022/10/18 00:10:11;;;;;;;16.20;14.57;;;18.80;99.90;;;;;;5037228;28;20867;-82
2022/10/18 00:12:38;;;;;;;13.80;12.40;;;18.80;99.90;;;;;;5030098;28;20468;-78
2022/10/18 00:15:08;;;;;;;16.53;14.83;;;18.80;99.90;;;;;;5023356;28;20500;-82
2022/10/18 00:17:36;;;;;;;17.93;16.17;;;18.70;99.90;;;;;;5029081;28;20472;-78
2022/10/18 00:20:04;;;;;;;17.77;15.97;;;18.80;99.90;;;;;;5034265;28;20478;-82
2022/10/18 00:22:31;;;;;;;25.50;21.97;;;18.70;99.90;;;;;;5023443;28;20503;-82
2022/10/18 00:24:59;;;;;;;34.27;27.40;;;18.70;99.90;;;;;;5034425;28;20508;-82
2022/10/18 00:27:28;;;;;;;31.60;28.20;;;18.70;99.90;;;;;;5035245;28;20463;-78
2022/10/18 00:29:55;;;;;;;26.57;23.93;;;18.70;99.90;;;;;;5034996;28;20495;-78
2022/10/18 00:32:23;;;;;;;22.57;20.27;;;18.70;99.90;;;;;;5036330;28;20467;-82
2022/10/18 00:34:50;;;;;;;21.77;16.43;;;18.70;99.90;;;;;;5034738;28;20487;-78
2022/10/18 00:37:17;;;;;;;18.20;16.40;;;18.80;99.90;;;;;;5034608;28;20829;-82
2022/10/18 00:39:47;;;;;;;18.13;16.40;;;18.70;99.90;;;;;;5035698;28;20551;-82
2022/10/18 00:42:17;;;;;;;17.00;14.83;;;18.80;99.90;;;;;;5035131;28;20495;-77
2022/10/18 00:45:13;;;;;;;15.13;13.63;;;18.80;99.90;;;;;;5035277;28;20468;-78
2022/10/18 00:47:41;;;;;;;12.80;10.70;;;18.80;99.90;;;;;;5035684;28;20453;-78
2022/10/18 00:50:14;;;;;;;12.00;10.90;;;18.80;99.90;;;;;;5036123;28;20464;-77
2022/10/18 00:52:45;;;;;;;12.67;10.00;;;18.80;99.90;;;;;;5035296;28;20494;-81
2022/10/18 00:55:13;;;;;;;10.80;9.80;;;18.80;99.90;;;;;;5035583;28;20492;-78
2022/10/18 00:57:45;;;;;;;10.63;9.73;;;18.90;99.90;;;;;;5034593;28;20476;-82
2022/10/18 01:00:13;;;;;;;11.97;10.70;;;18.90;99.90;;;;;;5038084;28;20464;-78
2022/10/18 01:02:43;;;;;;;12.00;10.90;;;18.80;99.90;;;;;;5038027;28;20610;-77
2022/10/18 01:05:14;;;;;;;17.33;15.53;;;18.90;99.90;;;;;;5035262;28;20531;-81
2022/10/18 01:08:06;;;;;;;17.63;15.60;;;18.90;99.90;;;;;;5034678;28;20502;-82
2022/10/18 01:10:42;;;;;;;16.67;14.97;;;18.90;99.90;;;;;;5033016;28;20526;-82
2022/10/18 01:13:28;;;;;;;16.70;15.00;;;18.90;99.90;;;;;;5051581;28;20468;-82
2022/10/18 01:16:00;;;;;;;17.87;15.90;;;18.90;99.90;;;;;;5013278;28;20489;-79
2022/10/18 01:18:35;;;;;;;16.93;15.13;;;18.90;99.90;;;;;;5015406;28;20572;-82
2022/10/18 01:21:12;;;;;;;19.60;17.67;;;18.90;99.90;;;;;;5014973;28;20481;-81
2022/10/18 01:24:11;;;;;;;19.30;17.30;;;18.90;99.90;;;;;;5015585;28;20822;-77
2022/10/18 01:26:57;;;;;;;19.60;17.70;;;18.90;99.90;;;;;;5010183;28;20967;-78
2022/10/18 01:29:37;;;;;;;15.67;14.07;;;18.90;99.90;;;;;;5015465;28;20523;-82
2022/10/18 01:32:10;;;;;;;14.83;13.33;;;18.90;99.90;;;;;;5015631;28;20523;-78
2022/10/18 01:34:40;;;;;;;13.83;12.63;;;18.90;99.90;;;;;;5007347;28;20485;-82
2022/10/18 01:37:13;;;;;;;12.13;11.13;;;18.90;99.90;;;;;;5011546;28;20476;-82
2022/10/18 01:39:44;;;;;;;12.63;11.33;;;18.90;99.90;;;;;;5001916;28;20528;-78
2022/10/18 01:42:14;;;;;;;11.90;10.80;;;18.90;99.90;;;;;;5002181;28;20469;-78
2022/10/18 01:44:42;;;;;;;13.30;12.10;;;19.00;99.90;;;;;;5012739;28;20500;-77
2022/10/18 01:47:12;;;;;;;12.87;11.40;;;19.00;99.90;;;;;;5014445;28;20473;-78
2022/10/18 01:49:39;;;;;;;13.17;11.97;;;19.00;99.90;;;;;;5014249;28;20469;-78
2022/10/18 01:52:07;;;;;;;12.37;11.27;;;19.00;99.90;;;;;;5015102;28;20497;-78
2022/10/18 01:54:37;;;;;;;12.20;10.90;;;18.90;99.90;;;;;;5013609;28;20493;-78
2022/10/18 01:57:12;;;;;;;11.30;10.30;;;19.00;99.90;;;;;;5015080;28;20469;-77
2022/10/18 01:59:49;;;;;;;12.07;10.97;;;19.00;99.90;;;;;;5014400;28;20515;-78
2022/10/18 02:02:30;;;;;;;10.77;9.77;;;19.00;99.90;;;;;;5033740;28;20521;-78
2022/10/18 02:05:06;;;;;;;11.50;10.60;;;19.00;99.90;;;;;;5034831;28;20491;-78
2022/10/18 02:07:39;;;;;;;9.47;8.57;;;19.00;99.90;;;;;;5034007;28;20470;-78
2022/10/18 02:10:11;;;;;;;11.30;10.40;;;19.00;99.90;;;;;;5034167;28;20526;-78
2022/10/18 02:12:43;;;;;;;11.63;10.53;;;19.00;99.90;;;;;;5041501;28;20468;-77
2022/10/18 02:15:14;;;;;;;11.60;10.60;;;19.00;99.90;;;;;;5026122;28;20473;-82
2022/10/18 02:17:45;;;;;;;13.20;12.10;;;18.90;99.90;;;;;;5023706;28;20530;-81
2022/10/18 02:20:16;;;;;;;13.13;11.87;;;19.00;99.90;;;;;;5014070;28;20477;-83
2022/10/18 02:22:45;;;;;;;12.00;10.90;;;19.00;99.90;;;;;;5014384;28;20457;-79
2022/10/18 02:25:18;;;;;;;13.77;12.47;;;19.00;99.90;;;;;;5014861;28;20954;-83
2022/10/18 02:27:45;;;;;;;12.20;11.10;;;18.90;99.90;;;;;;5002494;28;20528;-78
2022/10/18 02:30:14;;;;;;;12.07;11.07;;;19.00;99.90;;;;;;4995513;28;20469;-77
2022/10/18 02:32:48;;;;;;;10.47;9.33;;;19.00;99.90;;;;;;4995398;28;20796;-81
2022/10/18 02:35:22;;;;;;;10.57;9.70;;;19.00;99.90;;;;;;4995704;28;20501;-81
2022/10/18 02:37:50;;;;;;;12.47;11.37;;;19.00;99.90;;;;;;5006492;28;20788;-78
2022/10/18 02:40:18;;;;;;;9.20;8.50;;;18.90;99.90;;;;;;5014372;28;20823;-78
2022/10/18 02:42:48;;;;;;;11.47;10.37;;;18.90;99.90;;;;;;5013640;28;20571;-82
2022/10/18 02:45:15;;;;;;;10.43;9.63;;;18.90;99.90;;;;;;5014409;28;20523;-76
2022/10/18 02:47:44;;;;;;;10.27;9.43;;;18.90;99.90;;;;;;5015286;28;20480;-82
2022/10/18 02:50:12;;;;;;;9.73;9.00;;;18.90;99.90;;;;;;5024742;28;20469;-76
2022/10/18 02:52:39;;;;;;;10.27;9.27;;;18.90;99.90;;;;;;5016867;28;20492;-77
2022/10/18 02:55:08;;;;;;;11.90;10.70;;;18.90;99.90;;;;;;5018315;28;20934;-77
2022/10/18 02:57:35;;;;;;;9.67;8.97;;;18.90;99.90;;;;;;5016911;28;20487;-77
2022/10/18 03:00:02;;;;;;;12.60;10.13;;;18.90;99.90;;;;;;5016534;28;20480;-78
2022/10/18 03:02:29;;;;;;;10.70;9.80;;;18.90;99.90;;;;;;5016181;28;20481;-79
2022/10/18 03:04:58;;;;;;;10.77;9.80;;;18.90;99.90;;;;;;5019427;28;20461;-82
2022/10/18 03:07:25;;;;;;;10.93;9.93;;;18.90;99.90;;;;;;5021206;28;20508;-78
2022/10/18 03:09:52;;;;;;;9.50;8.70;;;18.90;99.90;;;;;;5026059;28;20488;-82
2022/10/18 03:12:19;;;;;;;10.03;9.10;;;18.90;99.90;;;;;;5023272;28;20495;-82
2022/10/18 03:14:46;;;;;;;10.50;9.70;;;18.90;99.90;;;;;;5020378;28;20476;-82
2022/10/18 03:17:16;;;;;;;8.77;8.13;;;18.90;99.90;;;;;;5023065;28;20469;-83
2022/10/18 03:19:43;;;;;;;9.60;8.80;;;18.90;99.90;;;;;;5020933;28;20473;-77
2022/10/18 03:22:11;;;;;;;10.30;9.50;;;18.90;99.90;;;;;;5019073;28;20473;-82
2022/10/18 03:24:38;;;;;;;10.07;9.17;;;18.90;99.90;;;;;;5014344;28;20487;-82
2022/10/18 03:27:08;;;;;;;9.33;8.53;;;18.90;99.90;;;;;;5016002;28;20496;-83
2022/10/18 03:29:35;;;;;;;9.10;8.23;;;18.90;99.90;;;;;;5013997;28;20528;-78
2022/10/18 03:32:02;;;;;;;8.93;8.23;;;18.90;99.90;;;;;;5018027;28;20488;-77
2022/10/18 03:34:29;;;;;;;7.57;7.00;;;18.90;99.90;;;;;;5018093;28;20469;-82
2022/10/18 03:36:56;;;;;;;8.03;7.33;;;18.80;99.90;;;;;;5018278;28;20468;-82
2022/10/18 03:39:24;;;;;;;7.67;7.07;;;18.80;99.90;;;;;;5018386;28;20527;-78
2022/10/18 03:41:51;;;;;;;7.83;7.17;;;18.80;99.90;;;;;;5017451;28;20531;-78
2022/10/18 03:44:19;;;;;;;8.13;7.43;;;18.80;99.90;;;;;;5017718;28;20472;-78
2022/10/18 03:46:46;;;;;;;10.00;9.13;;;18.80;99.90;;;;;;5017167;28;20477;-82
2022/10/18 03:49:13;;;;;;;8.63;7.93;;;18.80;99.90;;;;;;5017917;28;20473;-78
2022/10/18 03:51:40;;;;;;;9.23;8.33;;;18.80;99.90;;;;;;5017060;28;20484;-82
2022/10/18 03:54:07;;;;;;;8.63;7.97;;;18.80;99.90;;;;;;5017239;28;20473;-82
2022/10/18 03:56:35;;;;;;;8.90;8.13;;;18.80;99.90;;;;;;5016889;28;20505;-80
2022/10/18 03:59:03;;;;;;;9.70;8.90;;;18.80;99.90;;;;;;5017123;28;20503;-78
2022/10/18 04:01:32;;;;;;;7.87;7.20;;;18.80;99.90;;;;;;5017205;28;20507;-81
2022/10/18 04:03:59;;;;;;;8.37;7.77;;;18.70;99.90;;;;;;5017003;28;20468;-81
2022/10/18 04:06:26;;;;;;;9.10;8.30;;;18.70;99.90;;;;;;5017086;28;20488;-81
2022/10/18 04:08:55;;;;;;;8.40;7.70;;;18.70;99.90;;;;;;5016421;28;20469;-81
2022/10/18 04:11:23;;;;;;;10.47;8.77;;;18.70;99.90;;;;;;5017073;28;20530;-77
2022/10/18 04:13:52;;;;;;;10.37;9.37;;;18.70;99.90;;;;;;5015896;28;20535;-77
2022/10/18 04:16:19;;;;;;;9.70;9.00;;;18.60;99.90;;;;;;5016846;28;20468;-77
2022/10/18 04:18:46;;;;;;;8.23;7.63;;;18.60;99.90;;;;;;5015459;28;20531;-77
2022/10/18 04:21:13;;;;;;;10.57;9.03;;;18.60;99.90;;;;;;5017344;28;20547;-82
2022/10/18 04:23:40;;;;;;;9.57;8.77;;;18.60;99.90;;;;;;5016541;28;20501;-82
2022/10/18 04:26:08;;;;;;;9.77;8.87;;;18.50;99.90;;;;;;5016818;28;20472;-79
2022/10/18 04:28:38;;;;;;;8.77;7.97;;;18.50;99.90;;;;;;5016481;28;20469;-82
2022/10/18 04:31:07;;;;;;;10.83;9.83;;;18.50;99.90;;;;;;5015685;28;20958;-78
2022/10/18 04:33:34;;;;;;;9.23;8.53;;;18.50;99.90;;;;;;5016309;28;20464;-82
2022/10/18 04:36:02;;;;;;;10.47;9.50;;;18.50;99.90;;;;;;5015891;28;20551;-82
2022/10/18 04:38:29;;;;;;;9.53;8.73;;;18.50;99.90;;;;;;5016375;28;20966;-82
2022/10/18 04:40:56;;;;;;;10.37;9.43;;;18.50;99.90;;;;;;5016137;28;20465;-82
2022/10/18 04:43:23;;;;;;;9.73;8.90;;;18.40;99.90;;;;;;5015298;28;20477;-82
2022/10/18 04:45:50;;;;;;;11.37;10.37;;;18.40;99.90;;;;;;5015766;28;20473;-81
2022/10/18 04:48:18;;;;;;;8.50;7.80;;;18.40;99.90;;;;;;5015954;28;20487;-81
2022/10/18 04:50:48;;;;;;;8.83;8.03;;;18.40;99.90;;;;;;5015688;28;20507;-82
2022/10/18 04:53:16;;;;;;;8.90;8.10;;;18.40;99.90;;;;;;5016985;28;20548;-82
2022/10/18 04:55:47;;;;;;;8.43;7.83;;;18.30;99.90;;;;;;5016030;28;20623;-81
2022/10/18 04:58:14;;;;;;;8.90;8.13;;;18.30;99.90;;;;;;5004128;28;20470;-79
2022/10/18 05:00:42;;;;;;;10.10;9.10;;;18.30;99.90;;;;;;4996101;28;20542;-78
2022/10/18 05:03:09;;;;;;;9.57;8.80;;;18.30;99.90;;;;;;4994049;28;20576;-82
2022/10/18 05:05:42;;;;;;;8.97;8.17;;;18.30;99.90;;;;;;4996325;28;20497;-78
2022/10/18 05:08:09;;;;;;;9.37;8.57;;;18.30;99.90;;;;;;4996002;28;20544;-83
2022/10/18 05:10:36;;;;;;;9.83;9.03;;;18.20;99.90;;;;;;4996406;28;20793;-78
2022/10/18 05:13:03;;;;;;;7.90;7.30;;;18.20;99.90;;;;;;4995361;28;20562;-78
2022/10/18 05:15:30;;;;;;;8.77;8.10;;;18.20;99.90;;;;;;4995777;28;20470;-78
2022/10/18 05:17:59;;;;;;;8.87;8.23;;;18.20;99.90;;;;;;4996259;28;20474;-81
2022/10/18 05:20:26;;;;;;;8.50;7.70;;;18.20;99.90;;;;;;4997306;28;20479;-80
2022/10/18 05:22:54;;;;;;;8.90;8.20;;;18.20;99.90;;;;;;4996312;28;20501;-78
2022/10/18 05:25:22;;;;;;;8.43;7.70;;;18.20;99.90;;;;;;5004136;28;20477;-78
2022/10/18 05:27:50;;;;;;;9.07;8.23;;;18.20;99.90;;;;;;4996254;28;20547;-77
2022/10/18 05:30:17;;;;;;;8.63;7.93;;;18.10;99.90;;;;;;4995580;28;20494;-81
2022/10/18 05:32:44;;;;;;;9.90;8.27;;;18.10;99.90;;;;;;4996298;28;20478;-81
2022/10/18 05:35:11;;;;;;;8.93;8.20;;;18.10;99.90;;;;;;4995431;28;20505;-82
2022/10/18 05:37:38;;;;;;;9.97;9.20;;;18.10;99.90;;;;;;4998379;28;21023;-77
2022/10/18 05:40:08;;;;;;;8.70;7.90;;;18.10;99.90;;;;;;5014336;28;20511;-80
2022/10/18 05:42:59;;;;;;;9.50;8.60;;;18.10;99.90;;;;;;5005053;28;20513;-77
2022/10/18 05:45:26;;;;;;;8.30;7.50;;;18.10;99.90;;;;;;5014093;28;20508;-77
2022/10/18 05:47:53;;;;;;;10.10;9.20;;;18.10;99.90;;;;;;5013923;28;20539;-77
2022/10/18 05:50:22;;;;;;;8.33;7.63;;;18.10;99.90;;;;;;5015035;28;20861;-80
2022/10/18 05:52:49;;;;;;;9.27;8.47;;;18.00;99.90;;;;;;5014180;28;20480;-81
2022/10/18 05:55:17;;;;;;;8.60;7.90;;;18.00;99.90;;;;;;5015367;28;20951;-77
2022/10/18 06:00:53;;;;;;;10.70;9.80;;;18.00;99.90;;;;;;4999411;28;20784;-77
2022/10/18 06:03:20;;;;;;;9.67;8.80;;;18.00;99.90;;;;;;5014924;28;20559;-82
2022/10/18 06:05:49;;;;;;;8.57;7.87;;;18.00;99.90;;;;;;5014821;28;20541;-80
2022/10/18 06:08:16;;;;;;;10.07;9.17;;;18.00;99.90;;;;;;5014280;28;20465;-80
2022/10/18 06:10:44;;;;;;;9.10;8.30;;;18.00;99.90;;;;;;5013926;28;20664;-81
2022/10/18 06:13:11;;;;;;;9.60;8.70;;;18.00;99.90;;;;;;5001611;28;20477;-77
2022/10/18 06:15:39;;;;;;;8.87;8.07;;;18.00;99.90;;;;;;5012620;28;20534;-78
2022/10/18 06:18:05;;;;;;;8.40;7.80;;;18.00;99.90;;;;;;5013203;28;20505;-77
2022/10/18 06:20:33;;;;;;;10.37;8.73;;;18.00;99.90;;;;;;5015235;28;20484;-78
2022/10/18 06:22:59;;;;;;;8.70;8.00;;;18.00;99.90;;;;;;5014146;28;20542;-79
2022/10/18 06:25:26;;;;;;;9.03;8.23;;;18.00;99.90;;;;;;5011709;28;20814;-81
2022/10/18 06:27:55;;;;;;;8.77;7.87;;;18.00;99.90;;;;;;5014560;28;20469;-79
2022/10/18 06:30:28;;;;;;;8.00;7.30;;;17.90;99.90;;;;;;5013887;28;20607;-78
2022/10/18 06:32:58;;;;;;;9.40;7.97;;;17.90;99.90;;;;;;5014365;28;20534;-81
2022/10/18 06:35:26;;;;;;;8.67;7.90;;;17.90;99.90;;;;;;5013861;28;20588;-79
2022/10/18 06:37:53;;;;;;;9.13;8.17;;;17.90;99.90;;;;;;5014548;28;20472;-81
2022/10/18 06:40:20;;;;;;;9.93;8.97;;;17.90;99.90;;;;;;4995382;28;20477;-81
2022/10/18 06:42:48;;;;;;;8.70;7.90;;;17.90;99.90;;;;;;4986301;28;20481;-78
2022/10/18 06:45:17;;;;;;;10.00;9.10;;;17.90;99.90;;;;;;4994798;28;20545;-78
2022/10/18 06:47:47;;;;;;;10.70;8.63;;;17.90;99.90;;;;;;4994555;28;20488;-79
2022/10/18 06:50:15;;;;;;;8.67;7.90;;;17.90;99.90;;;;;;4995114;28;20477;-79
2022/10/18 06:52:42;;;;;;;8.87;7.97;;;17.90;99.90;;;;;;4995592;28;20483;-80
2022/10/18 06:55:10;;;;;;;10.00;9.20;;;17.90;99.90;;;;;;4994992;28;20497;-79
2022/10/18 06:57:37;;;;;;;9.80;8.80;;;17.90;99.90;;;;;;5002478;28;20587;-81
2022/10/18 07:00:44;;;;;;;10.20;9.30;;;17.90;99.90;;;;;;4995085;28;20480;-82
2022/10/18 07:03:26;;;;;;;9.97;8.97;;;17.90;99.90;;;;;;4987313;28;20465;-78
2022/10/18 07:05:53;;;;;;;10.80;9.80;;;17.90;99.90;;;;;;4993647;28;20967;-82
2022/10/18 07:08:20;;;;;;;10.43;9.33;;;17.90;99.90;;;;;;5002800;28;20461;-79
2022/10/18 07:10:52;;;;;;;9.50;8.60;;;17.90;99.90;;;;;;4994124;28;20547;-79
2022/10/18 07:13:19;;;;;;;10.67;9.63;;;17.90;99.90;;;;;;4993984;28;20485;-80
2022/10/18 07:15:53;;;;;;;11.00;9.90;;;17.90;99.90;;;;;;4994242;28;20468;-81
2022/10/18 07:18:23;;;;;;;10.80;9.90;;;17.90;99.90;;;;;;4994677;28;20471;-80
2022/10/18 07:20:51;;;;;;;10.67;9.10;;;17.90;99.90;;;;;;4994288;28;20509;-78
2022/10/18 07:23:29;;;;;;;9.13;8.23;;;17.90;99.90;;;;;;4993510;28;20795;-80
2022/10/18 07:25:56;;;;;;;9.67;8.70;;;17.90;99.90;;;;;;4994568;28;20982;-80
2022/10/18 07:28:23;;;;;;;8.63;7.83;;;17.90;99.90;;;;;;4995200;28;20544;-79
2022/10/18 07:30:50;;;;;;;7.60;6.90;;;17.90;99.90;;;;;;4995252;28;20857;-80
2022/10/18 07:33:19;;;;;;;8.50;7.80;;;17.90;99.90;;;;;;4994871;28;20481;-81
2022/10/18 07:35:46;;;;;;;7.20;6.53;;;17.90;99.90;;;;;;4995082;28;20465;-81
2022/10/18 07:38:15;;;;;;;8.47;7.57;;;17.90;99.90;;;;;;5001117;28;20491;-81
2022/10/18 07:40:42;;;;;;;5.90;5.40;;;17.90;99.90;;;;;;5012689;28;20556;-81
2022/10/18 07:43:08;;;;;;;7.10;6.40;;;17.90;99.90;;;;;;5013373;28;21007;-80
2022/10/18 07:45:35;;;;;;;6.50;6.00;;;17.90;99.90;;;;;;5013604;28;21045;-80
2022/10/18 07:48:05;;;;;;;7.83;6.83;;;17.90;99.90;;;;;;5013054;28;20865;-78
2022/10/18 07:50:32;;;;;;;7.83;7.13;;;17.90;99.90;;;;;;5014050;28;20964;-80
2022/10/18 07:53:10;;;;;;;7.70;7.07;;;17.90;99.90;;;;;;5013877;28;20878;-77
2022/10/18 07:55:43;;;;;;;6.80;6.20;;;17.90;99.90;;;;;;5005494;28;20475;-77
2022/10/18 07:58:10;;;;;;;6.30;5.77;;;17.90;99.90;;;;;;5013223;28;20534;-78
2022/10/18 08:00:38;;;;;;;7.70;6.90;;;18.00;99.90;;;;;;5013687;28;20527;-78
2022/10/18 08:03:05;;;;;;;7.50;6.90;;;17.90;99.90;;;;;;5013473;28;20477;-78
2022/10/18 08:05:32;;;;;;;7.00;6.40;;;18.00;99.90;;;;;;5014410;28;21037;-78
2022/10/18 08:08:00;;;;;;;7.70;7.00;;;18.00;99.90;;;;;;5013425;28;20729;-81
2022/10/18 08:10:27;;;;;;;7.60;7.00;;;18.00;99.90;;;;;;5013869;28;20496;-78
2022/10/18 08:12:56;;;;;;;8.40;7.60;;;17.90;99.90;;;;;;5013944;28;20508;-81
2022/10/18 08:15:24;;;;;;;63.80;39.73;;;17.90;99.90;;;;;;5015346;28;20586;-80
2022/10/18 08:17:51;;;;;;;33.00;25.80;;;17.90;99.90;;;;;;5016187;28;20506;-77
2022/10/18 08:20:18;;;;;;;30.30;26.00;;;17.90;99.90;;;;;;5018246;28;20791;-78
2022/10/18 08:22:46;;;;;;;24.03;21.60;;;17.90;99.90;;;;;;5020227;28;20472;-81
2022/10/18 08:25:13;;;;;;;21.07;18.93;;;17.90;99.90;;;;;;5021798;28;20492;-81
2022/10/18 08:27:45;;;;;;;16.97;15.23;;;17.90;99.90;;;;;;5023019;28;20476;-81
2022/10/18 08:30:14;;;;;;;13.83;12.43;;;17.90;99.90;;;;;;5024697;28;20786;-81
2022/10/18 08:32:44;;;;;;;13.07;10.43;;;17.90;99.90;;;;;;5025955;28;20476;-77
2022/10/18 08:35:11;;;;;;;11.20;9.70;;;17.90;99.90;;;;;;5026307;28;20496;-78
2022/10/18 08:38:11;;;;;;;10.37;9.30;;;17.90;99.90;;;;;;5024446;28;20469;-77
2022/10/18 08:41:18;;;;;;;9.50;8.60;;;17.90;99.90;;;;;;5024612;28;20471;-81
2022/10/18 08:43:52;;;;;;;12.97;10.83;;;17.90;99.90;;;;;;5049631;28;20466;-81
2022/10/18 08:46:21;;;;;;;14.03;10.53;;;17.80;99.90;;;;;;5055055;28;20471;-82
2022/10/18 08:49:01;;;;;;;9.63;8.73;;;17.80;99.90;;;;;;5038074;28;20487;-81
2022/10/18 08:51:37;;;;;;;7.87;7.07;;;17.80;99.90;;;;;;5030257;28;20484;-78
2022/10/18 08:54:11;;;;;;;10.43;7.80;;;17.80;99.90;;;;;;5029157;28;20551;-80
2022/10/18 08:56:39;;;;;;;8.20;6.70;;;17.80;99.90;;;;;;5024720;28;20478;-81
2022/10/18 08:59:13;;;;;;;6.83;6.23;;;17.80;99.90;;;;;;5016482;28;20526;-80
2022/10/18 09:01:54;;;;;;;7.63;6.80;;;17.80;99.90;;;;;;5016513;28;20471;-81
2022/10/18 09:04:41;;;;;;;17.37;15.70;;;17.80;99.90;;;;;;5006844;28;20508;-81
2022/10/18 09:07:50;;;;;;;16.20;14.60;;;17.80;99.90;;;;;;5016311;28;20543;-78
2022/10/18 09:10:29;;;;;;;12.03;10.80;;;17.80;99.90;;;;;;5015671;28;20508;-77
2022/10/18 09:13:22;;;;;;;11.27;10.17;;;17.80;99.90;;;;;;5015093;28;20494;-81
2022/10/18 09:15:57;;;;;;;10.37;9.37;;;17.80;99.90;;;;;;5015886;28;20795;-80
2022/10/18 09:18:43;;;;;;;10.53;8.80;;;17.80;99.90;;;;;;5016160;28;20533;-77
2022/10/18 09:21:19;;;;;;;7.87;7.17;;;17.80;99.90;;;;;;5014396;28;20461;-80
2022/10/18 09:23:49;;;;;;;7.83;7.20;;;17.70;99.90;;;;;;5016004;28;20471;-81
2022/10/18 09:26:19;;;;;;;9.30;7.80;;;17.80;99.90;;;;;;5015006;28;20832;-78
2022/10/18 09:29:04;;;;;;;8.07;7.27;;;17.80;99.90;;;;;;5014982;28;20486;-78
2022/10/18 09:31:43;;;;;;;7.70;6.97;;;17.80;99.90;;;;;;5015870;28;20462;-78
2022/10/18 09:34:29;;;;;;;8.53;6.47;;;17.70;99.90;;;;;;5016123;28;20543;-79
2022/10/18 09:36:56;;;;;;;6.53;6.03;;;17.70;99.90;;;;;;5015395;28;20802;-80
2022/10/18 09:39:29;;;;;;;6.97;6.27;;;17.70;99.90;;;;;;5015333;28;20753;-78
2022/10/18 09:42:00;;;;;;;7.43;6.13;;;17.70;99.90;;;;;;5013735;28;20488;-79
2022/10/18 09:44:30;;;;;;;6.93;6.33;;;17.70;99.90;;;;;;5005092;28;20483;-77
2022/10/18 09:47:02;;;;;;;6.90;5.83;;;17.70;99.90;;;;;;5015182;28;20813;-79
2022/10/18 09:49:43;;;;;;;6.47;5.80;;;17.70;99.90;;;;;;5013867;28;20469;-77
2022/10/18 09:52:18;;;;;;;6.50;6.00;;;17.80;99.90;;;;;;5014495;28;20467;-77
2022/10/18 09:54:54;;;;;;;6.07;5.57;;;17.70;99.90;;;;;;5015112;28;20576;-78
2022/10/18 09:57:26;;;;;;;8.30;7.10;;;17.70;99.90;;;;;;5014081;28;20466;-77
2022/10/18 09:59:53;;;;;;;6.93;6.20;;;17.70;99.90;;;;;;5015580;28;20855;-78
2022/10/18 10:08:32;;;;;;;7.83;6.13;;;17.70;99.90;;;;;;5001750;28;20470;-81
2022/10/18 10:12:15;;;;;;;;;;;;;;;;;;;;;
2022/10/18 10:15:41;;;;;;;8.13;7.30;;;17.70;99.90;;;;;;4912040;29;20830;-79
2022/10/18 10:22:30;;;;;;;;;;;;;;;;;;;;;
2022/10/18 10:38:51;;;;;;;8.03;7.37;;;17.60;99.90;;;;;;4726462;29;20484;-81
2022/10/18 10:41:24;;;;;;;9.30;8.50;;;17.60;99.90;;;;;;4822613;29;20469;-78
2022/10/18 10:44:00;;;;;;;7.67;7.07;;;17.60;99.90;;;;;;4839669;29;20600;-77
2022/10/18 10:46:39;;;;;;;7.80;7.10;;;17.60;99.90;;;;;;4959388;28;20477;-77
2022/10/18 10:52:31;;;;;;;9.20;8.37;;;17.60;99.90;;;;;;4938094;28;20944;-82
2022/10/18 10:55:00;;;;;;;8.87;8.07;;;17.60;99.90;;;;;;4974507;28;20478;-78
2022/10/18 10:57:29;;;;;;;9.13;8.23;;;17.60;99.90;;;;;;4974838;28;20479;-81
2022/10/18 10:59:58;;;;;;;9.40;8.60;;;17.60;99.90;;;;;;4974076;28;20474;-82
2022/10/18 11:02:30;;;;;;;11.43;10.13;;;17.60;99.90;;;;;;4974745;28;20480;-81
2022/10/18 11:05:15;;;;;;;9.57;8.67;;;17.70;99.90;;;;;;4974311;28;20472;-81
2022/10/18 11:07:47;;;;;;;9.40;8.60;;;17.70;99.90;;;;;;4973433;28;20521;-78
2022/10/18 11:10:17;;;;;;;9.77;8.97;;;17.70;99.90;;;;;;4975011;28;20493;-77
2022/10/18 11:12:47;;;;;;;12.47;11.30;;;17.70;99.90;;;;;;4976401;28;20489;-77
2022/10/18 11:15:22;;;;;;;11.87;10.63;;;17.70;99.90;;;;;;4994105;28;20799;-81
2022/10/18 11:18:04;;;;;;;10.77;9.87;;;17.70;99.90;;;;;;4994405;28;20469;-77
2022/10/18 11:20:35;;;;;;;12.97;11.67;;;17.70;99.90;;;;;;4986154;28;20477;-77
2022/10/18 11:23:07;;;;;;;11.93;10.83;;;17.70;99.90;;;;;;4974806;28;20552;-80
2022/10/18 11:26:03;;;;;;;11.40;10.27;;;17.70;99.90;;;;;;4973833;28;20953;-81
2022/10/18 11:29:00;;;;;;;11.53;10.53;;;17.70;99.90;;;;;;4974811;28;20527;-78
2022/10/18 11:31:32;;;;;;;11.87;10.77;;;17.70;99.90;;;;;;4974186;28;20470;-78
2022/10/18 11:34:21;;;;;;;12.30;10.40;;;17.70;99.90;;;;;;4970579;28;20486;-77
2022/10/18 11:36:54;;;;;;;9.67;8.67;;;17.60;99.90;;;;;;4980554;28;20921;-77
2022/10/18 11:39:32;;;;;;;8.50;7.90;;;17.70;99.90;;;;;;4995779;28;20559;-76
2022/10/18 11:42:05;;;;;;;8.63;7.93;;;17.70;99.90;;;;;;5012684;28;20496;-80
2022/10/18 11:44:48;;;;;;;11.57;8.33;;;17.70;99.90;;;;;;5013456;28;20546;-81
2022/10/18 11:47:41;;;;;;;9.00;8.20;;;17.70;99.90;;;;;;5013186;28;20562;-80
2022/10/18 11:50:25;;;;;;;9.60;8.70;;;17.70;99.90;;;;;;5013529;28;20490;-77
2022/10/18 11:53:05;;;;;;;9.80;8.80;;;17.70;99.90;;;;;;5017101;28;20507;-82
2022/10/18 11:55:45;;;;;;;8.90;8.10;;;17.70;99.90;;;;;;5017558;28;20472;-80
2022/10/18 11:58:25;;;;;;;8.97;8.07;;;17.70;99.90;;;;;;5017581;28;20540;-82
2022/10/18 12:01:11;;;;;;;8.80;8.10;;;17.80;99.90;;;;;;5017277;28;20535;-82
2022/10/18 12:03:50;;;;;;;9.10;8.30;;;17.80;99.90;;;;;;5017444;28;20487;-82
2022/10/18 12:06:21;;;;;;;9.90;8.60;;;17.80;99.90;;;;;;5017168;28;20464;-82
2022/10/18 12:08:53;;;;;;;10.53;9.40;;;17.80;99.90;;;;;;5006498;28;20799;-81
2022/10/18 12:11:26;;;;;;;11.30;10.23;;;17.80;99.90;;;;;;5016871;28;20543;-78
2022/10/18 12:13:57;;;;;;;10.83;9.90;;;17.80;99.90;;;;;;5016742;28;20541;-78
2022/10/18 12:16:27;;;;;;;9.30;8.50;;;17.80;99.90;;;;;;5022637;28;21168;-79
2022/10/18 12:18:58;;;;;;;9.27;8.37;;;17.80;99.90;;;;;;5035827;28;20538;-81
2022/10/18 12:21:29;;;;;;;9.37;8.57;;;17.90;99.90;;;;;;5029388;28;20483;-78
2022/10/18 12:23:58;;;;;;;7.43;6.77;;;17.90;99.90;;;;;;5036440;28;20460;-81
2022/10/18 12:26:28;;;;;;;8.60;7.80;;;17.90;99.90;;;;;;5035925;28;20470;-85
2022/10/18 12:29:06;;;;;;;7.67;7.07;;;17.90;99.90;;;;;;5035806;28;20944;-81
2022/10/18 12:31:38;;;;;;;7.53;6.90;;;17.90;99.90;;;;;;5035907;28;20505;-77
2022/10/18 12:34:18;;;;;;;6.70;6.13;;;17.90;99.90;;;;;;5035603;28;20483;-78
2022/10/18 12:37:14;;;;;;;9.40;8.47;;;17.90;99.90;;;;;;5035965;28;20470;-81
2022/10/18 12:39:45;;;;;;;7.20;6.60;;;17.90;99.90;;;;;;5013822;28;20507;-81
2022/10/18 12:42:20;;;;;;;8.60;7.73;;;17.90;99.90;;;;;;5036168;28;20529;-82
2022/10/18 12:44:47;;;;;;;7.77;6.97;;;17.90;99.90;;;;;;5028062;28;20463;-81
2022/10/18 12:47:22;;;;;;;9.07;8.27;;;17.90;99.90;;;;;;5026381;28;20486;-81
2022/10/18 12:49:57;;;;;;;7.33;6.73;;;17.90;99.90;;;;;;5035616;28;20460;-82
2022/10/18 12:52:28;;;;;;;8.73;7.83;;;18.00;99.90;;;;;;5034894;28;20479;-82
2022/10/18 12:55:27;;;;;;;9.50;8.63;;;18.00;99.90;;;;;;5035984;28;20814;-81
2022/10/18 12:58:21;;;;;;;9.53;8.70;;;18.00;99.90;;;;;;5036327;28;20544;-82
2022/10/18 13:00:53;;;;;;;7.73;6.90;;;18.00;99.90;;;;;;5034397;28;20471;-82
2022/10/18 13:03:50;;;;;;;9.73;8.93;;;18.00;99.90;;;;;;5036788;28;21041;-76
2022/10/18 13:06:17;;;;;;;9.27;8.47;;;18.10;99.90;;;;;;5037598;28;20456;-82
2022/10/18 13:08:49;;;;;;;7.93;7.23;;;18.10;99.90;;;;;;5036326;28;20466;-82
2022/10/18 13:11:35;;;;;;;8.20;7.50;;;18.10;99.90;;;;;;5035139;28;20472;-80
2022/10/18 13:14:35;;;;;;;7.87;7.23;;;18.10;99.90;;;;;;5035835;28;20942;-83
2022/10/18 13:17:14;;;;;;;9.83;9.03;;;18.10;99.90;;;;;;5036052;28;20557;-81
2022/10/18 13:23:01;;;;;;;10.67;9.67;;;18.10;99.90;;;;;;4991369;28;20469;-81
2022/10/18 13:25:32;;;;;;;11.37;10.30;;;18.20;99.90;;;;;;5035599;28;21006;-80
2022/10/18 13:28:17;;;;;;;9.07;8.27;;;18.20;99.90;;;;;;5036041;28;20467;-82
2022/10/18 13:30:53;;;;;;;9.70;8.90;;;18.20;99.90;;;;;;5035704;28;20505;-81
2022/10/18 13:33:32;;;;;;;9.33;8.53;;;18.20;99.90;;;;;;5035516;28;20475;-80
2022/10/18 13:36:01;;;;;;;9.50;8.70;;;18.30;99.90;;;;;;5034175;28;20464;-82
2022/10/18 13:38:47;;;;;;;12.57;11.43;;;18.30;99.90;;;;;;5023577;28;20556;-82
2022/10/18 13:41:17;;;;;;;10.87;9.80;;;18.30;99.90;;;;;;5009751;28;21012;-80
2022/10/18 13:44:00;;;;;;;9.87;8.97;;;18.30;99.90;;;;;;5014951;28;20816;-78